Time;durP1;ratioP1;P1;durP2;ratioP2;P2;SDS_P1;SDS_P2;PMS_P1;PMS_P2;Temp;Humidity;BMP_temperature;BMP_pressure;BME280_temperature;BME280_humidity;BME280_pressure;Samples;Min_cycle;Max_cycle;Signal;HPM_P1;HPM_P2
2023/08/14 00:09:56;;;;;;;9.00;3.80;;;;;;;22.53;78.91;100707.59;678112;1266;141842;-78
2023/08/14 00:24:59;;;;;;;5.70;3.50;;;;;;;22.10;80.62;100707.81;677373;1265;139279;-77
2023/08/14 00:40:03;;;;;;;7.00;4.20;;;;;;;22.16;80.85;100708.36;673957;1276;139987;-79
2023/08/14 00:55:10;;;;;;;4.70;3.40;;;;;;;22.10;81.00;100715.50;669678;1266;140226;-77
2023/08/14 01:10:13;;;;;;;6.30;4.10;;;;;;;22.14;80.91;100710.76;668848;1265;139783;-76
2023/08/14 01:25:20;;;;;;;5.30;3.80;;;;;;;22.06;81.54;100702.71;669409;1260;139949;-78
2023/08/14 01:40:40;;;;;;;6.60;3.20;;;;;;;21.91;81.54;100708.45;669522;1265;139896;-76
2023/08/14 01:55:44;;;;;;;10.50;5.60;;;;;;;21.62;82.01;100721.60;668924;1264;140354;-77
2023/08/14 02:10:47;;;;;;;5.70;4.10;;;;;;;21.50;81.92;100732.35;669192;1265;139965;-77
2023/08/14 02:25:55;;;;;;;6.70;4.20;;;;;;;21.30;82.36;100734.52;668921;1275;140267;-77
2023/08/14 02:41:02;;;;;;;8.20;5.20;;;;;;;21.15;82.91;100750.66;669317;1266;140363;-79
2023/08/14 02:56:05;;;;;;;6.60;4.80;;;;;;;21.32;81.65;100749.84;668561;1265;140505;-77
2023/08/14 03:11:09;;;;;;;6.90;4.60;;;;;;;21.17;82.46;100754.05;669356;1266;140083;-77
2023/08/14 03:26:14;;;;;;;6.30;4.10;;;;;;;21.18;83.34;100755.91;669090;1265;140094;-77
2023/08/14 03:41:19;;;;;;;5.80;3.90;;;;;;;21.18;83.62;100753.23;670322;1265;139728;-76
2023/08/14 03:56:22;;;;;;;7.50;4.80;;;;;;;21.23;83.69;100767.79;671158;1264;175314;-78
2023/08/14 04:11:25;;;;;;;6.20;4.80;;;;;;;21.34;83.34;100774.32;670142;1266;139901;-78
2023/08/14 04:26:29;;;;;;;8.10;4.80;;;;;;;21.28;85.87;100770.30;670536;1264;140153;-77
2023/08/14 04:41:32;;;;;;;7.30;4.10;;;;;;;21.72;86.02;100767.06;674639;1265;139460;-77
2023/08/14 04:56:36;;;;;;;12.50;6.30;;;;;;;22.23;85.44;100772.14;673512;1266;139909;-77
2023/08/14 05:11:40;;;;;;;9.10;4.70;;;;;;;22.52;85.75;100775.33;668840;1274;140420;-77
2023/08/14 05:26:43;;;;;;;10.80;5.70;;;;;;;22.89;86.78;100784.19;668541;1276;139563;-77
2023/08/14 05:41:47;;;;;;;5.40;3.00;;;;;;;23.98;86.04;100785.80;674853;1267;140293;-79
2023/08/14 05:56:50;;;;;;;31.20;20.00;;;;;;;25.61;79.69;100788.15;677743;1266;140383;-76
2023/08/14 06:11:54;;;;;;;5.30;3.10;;;;;;;25.50;77.01;100791.03;674683;1264;140498;-76
2023/08/14 06:26:59;;;;;;;6.30;2.50;;;;;;;25.80;73.64;100801.71;669587;1274;140356;-76
2023/08/14 06:42:11;;;;;;;9.60;2.70;;;;;;;26.18;70.88;100792.79;669688;1261;140627;-76
2023/08/14 06:57:14;;;;;;;3.40;2.20;;;;;;;26.07;69.77;100797.26;669830;1265;141273;-76
2023/08/14 07:12:18;;;;;;;5.20;2.40;;;;;;;25.64;72.41;100809.09;670030;1260;139502;-74
2023/08/14 07:27:22;;;;;;;6.50;2.80;;;;;;;25.89;71.60;100816.30;669705;1264;140646;-75
2023/08/14 07:42:26;;;;;;;4.00;2.30;;;;;;;25.54;70.58;100817.05;668899;1264;139129;-77
2023/08/14 07:57:30;;;;;;;3.50;2.00;;;;;;;26.37;69.88;100810.40;668243;1263;140073;-75
2023/08/14 08:12:33;;;;;;;5.10;2.90;;;;;;;28.89;64.79;100803.22;670993;1276;139433;-75
2023/08/14 08:27:37;;;;;;;3.50;2.40;;;;;;;30.08;60.70;100804.23;675271;1260;139283;-75
2023/08/14 08:42:41;;;;;;;10.00;2.90;;;;;;;30.94;60.14;100802.64;675107;1264;138729;-75
2023/08/14 08:57:45;;;;;;;3.20;2.70;;;;;;;31.76;59.88;100785.14;670001;1260;139487;-74
2023/08/14 09:12:49;;;;;;;12.50;4.10;;;;;;;32.28;58.22;100769.08;673897;1264;138595;-75
2023/08/14 09:27:55;;;;;;;3.70;2.30;;;;;;;32.34;56.36;100764.80;671000;1263;138635;-75
2023/08/14 09:42:59;;;;;;;5.90;2.50;;;;;;;32.74;53.87;100755.37;669583;1275;139720;-75
2023/08/14 09:58:04;;;;;;;4.40;2.80;;;;;;;33.54;53.62;100753.49;668899;1265;140305;-75
2023/08/14 10:13:09;;;;;;;4.10;2.00;;;;;;;33.83;52.87;100752.65;668497;1266;138908;-75
2023/08/14 10:28:14;;;;;;;6.10;2.00;;;;;;;34.31;51.22;100745.27;668654;1261;139368;-76
2023/08/14 10:43:25;;;;;;;3.10;2.00;;;;;;;34.21;51.21;100726.79;668998;1269;140099;-77
2023/08/14 10:58:36;;;;;;;4.40;2.50;;;;;;;34.74;51.25;100710.73;669749;1263;139852;-77
2023/08/14 11:13:41;;;;;;;6.20;2.90;;;;;;;35.12;49.84;100705.87;669234;1263;139998;-77
2023/08/14 11:28:45;;;;;;;4.10;3.10;;;;;;;34.84;50.65;100696.55;669015;1264;139699;-76
2023/08/14 11:43:48;;;;;;;30.60;15.30;;;;;;;34.60;52.19;100690.44;668834;1261;140215;-76
2023/08/14 11:58:52;;;;;;;7.10;3.30;;;;;;;34.81;52.60;100676.88;668933;1260;138699;-77
2023/08/14 12:14:09;;;;;;;8.60;2.60;;;;;;;36.13;51.99;100660.52;669566;1262;138791;-77
2023/08/14 12:29:14;;;;;;;5.20;3.10;;;;;;;36.54;51.48;100656.11;672263;1262;139948;-77
2023/08/14 12:44:18;;;;;;;5.50;3.40;;;;;;;36.86;51.90;100648.70;668775;1264;139211;-76
2023/08/14 12:59:22;;;;;;;6.00;3.40;;;;;;;36.93;51.42;100642.57;669972;1264;140842;-77
2023/08/14 13:14:34;;;;;;;4.20;3.00;;;;;;;36.46;52.47;100633.20;669051;1266;139465;-77
2023/08/14 13:29:39;;;;;;;4.40;3.00;;;;;;;35.89;53.35;100627.40;668939;1260;138461;-76
2023/08/14 13:44:43;;;;;;;9.00;3.50;;;;;;;35.24;55.00;100625.06;671126;1263;140343;-77
2023/08/14 13:59:47;;;;;;;5.40;3.70;;;;;;;35.18;56.15;100611.95;669645;1264;139091;-77
2023/08/14 14:14:52;;;;;;;10.10;3.80;;;;;;;35.61;55.99;100599.20;670931;1264;138222;-77
2023/08/14 14:29:56;;;;;;;5.40;4.20;;;;;;;35.70;56.04;100600.10;669621;1263;140006;-77
2023/08/14 14:44:59;;;;;;;6.00;4.20;;;;;;;35.04;57.41;100588.41;669868;1263;139729;-76
2023/08/14 15:00:03;;;;;;;6.40;4.40;;;;;;;35.09;58.26;100572.20;671158;1266;138200;-76
2023/08/14 15:15:08;;;;;;;6.00;3.90;;;;;;;35.22;57.80;100545.56;670385;1263;140088;-77
2023/08/14 15:30:12;;;;;;;9.00;4.00;;;;;;;35.43;56.92;100533.52;672318;1263;138917;-77
2023/08/14 15:45:17;;;;;;;6.90;4.20;;;;;;;35.00;57.10;100530.04;671290;1264;140080;-77
2023/08/14 16:00:29;;;;;;;6.40;4.00;;;;;;;35.05;56.27;100534.42;671196;1263;139607;-77
2023/08/14 16:15:33;;;;;;;6.60;4.30;;;;;;;34.96;56.78;100528.95;670563;1265;141895;-77
2023/08/14 16:30:37;;;;;;;7.00;4.20;;;;;;;34.75;57.35;100529.20;671276;1264;139845;-78
2023/08/14 16:45:46;;;;;;;5.00;3.50;;;;;;;34.23;58.89;100540.02;671972;1265;139735;-78
2023/08/14 17:00:50;;;;;;;6.70;5.20;;;;;;;33.92;60.60;100541.89;670838;1266;139605;-78
2023/08/14 17:15:54;;;;;;;8.30;5.40;;;;;;;33.39;61.88;100541.61;676004;1265;139398;-78
2023/08/14 17:30:58;;;;;;;6.40;4.90;;;;;;;32.71;63.17;100551.08;672923;1265;139541;-78
2023/08/14 17:46:02;;;;;;;8.10;5.50;;;;;;;31.99;64.75;100570.63;673865;1265;139998;-79
2023/08/14 18:01:06;;;;;;;11.00;6.20;;;;;;;31.43;66.50;100559.71;671837;1265;139864;-79
2023/08/14 18:16:10;;;;;;;23.80;7.30;;;;;;;30.90;67.79;100558.02;671877;1264;140299;-78
2023/08/14 18:31:14;;;;;;;17.60;11.00;;;;;;;30.41;69.81;100560.38;670629;1265;140110;-78
2023/08/14 18:46:19;;;;;;;127.60;79.80;;;;;;;30.38;70.95;100562.16;673741;1265;140967;-76
2023/08/14 19:01:24;;;;;;;63.70;36.10;;;;;;;30.01;73.49;100578.52;671388;1265;139937;-78
2023/08/14 19:16:30;;;;;;;37.20;20.00;;;;;;;29.67;74.92;100584.56;671407;1263;139195;-77
2023/08/14 19:31:36;;;;;;;20.60;11.10;;;;;;;29.05;75.23;100596.87;672039;1276;140264;-79
2023/08/14 19:46:41;;;;;;;36.80;18.00;;;;;;;28.81;75.78;100598.41;671674;1265;139587;-79
2023/08/14 20:01:47;;;;;;;21.70;13.80;;;;;;;28.71;77.48;100617.15;669395;1267;140291;-80
2023/08/14 20:16:59;;;;;;;21.50;14.10;;;;;;;28.20;78.66;100621.34;669476;1265;139403;-79
2023/08/14 20:32:04;;;;;;;35.30;20.00;;;;;;;27.99;79.02;100627.42;668904;1266;140955;-80
2023/08/14 20:47:08;;;;;;;29.50;13.00;;;;;;;27.79;79.92;100613.66;670249;1270;140078;-79
2023/08/14 21:02:14;;;;;;;26.90;14.20;;;;;;;27.67;80.76;100597.65;668418;1265;140684;-79
2023/08/14 21:17:19;;;;;;;36.10;19.90;;;;;;;27.67;80.91;100603.30;670191;1266;140875;-78
2023/08/14 21:32:25;;;;;;;29.60;16.60;;;;;;;27.21;83.05;100609.55;668770;1263;139847;-78
2023/08/14 21:47:29;;;;;;;24.10;14.70;;;;;;;26.84;83.97;100607.38;668594;1269;139663;-78
2023/08/14 22:02:33;;;;;;;18.90;11.50;;;;;;;26.68;84.85;100610.08;668619;1273;140228;-78
2023/08/14 22:17:38;;;;;;;31.30;15.60;;;;;;;26.32;85.62;100599.41;668305;1276;139720;-79
2023/08/14 22:32:42;;;;;;;15.60;10.60;;;;;;;26.17;86.45;100600.97;667843;1263;140293;-77
2023/08/14 22:47:46;;;;;;;20.40;13.60;;;;;;;25.99;86.51;100595.98;667976;1266;140382;-78
2023/08/14 23:02:57;;;;;;;33.70;17.50;;;;;;;25.89;88.25;100599.73;668414;1266;141255;-77
2023/08/14 23:18:02;;;;;;;23.00;13.50;;;;;;;25.72;88.75;100597.61;668326;1266;139841;-79
2023/08/14 23:33:07;;;;;;;17.00;11.10;;;;;;;25.67;88.74;100595.87;668051;1263;140984;-78
2023/08/14 23:48:10;;;;;;;37.60;15.60;;;;;;;25.49;88.40;100593.30;668112;1273;140658;-77
